Terminal Aerodrome Forecast
Issued by NWS

Home | Current Version | Previous Version | Text Only | Print | Product List | Glossary On
Versions: 1 2 3 4 5 6 7 8 9 10 11 12 13 14 15 16 17 18 19 20 21
000
FTUS45 KGJT 171741
TAFVEL
TAF
KVEL 171741Z 1718/1818 VRB03KT 4SM BR OVC010
      TEMPO 1718/1720 6SM BR
     FM172000 00000KT P6SM OVC012
     FM180500 00000KT P6SM OVC010=

USA.gov is the U.S. government's official web portal to all federal, state and local government web resources and services.